Etusivu
METAR-TAF:

METAR-TAF

Lentoasemat :

Birminghamin kansainvälinen lentoasema

Birmingham, Englanti

Leveyspiiri: 52-27N, Pituuspiiri: 001-44W, korkeus merenpinnasta: 99 m

Tämänhetkinen sää

Tämä raportti tehtiin 32 minuuttia sitten, kello 10.50 UTC
Tuuli 10 kn luoteesta
Lämpötila 8°C
Kosteus 76%
Ilmanpaine 1027 hPa
Näkyvyys 10 km tai enemmän
Hajonneita pilviä 4100 ft:n korkeudessa

METAR: EGBB 101050Z 32010KT 9999 BKN041 08/04 Q1027

Aika: 11:22 (11:22 UTC)

Sääennuste

Tämä raportti tehtiin 4 tuntia ja 40 minuuttia sitten, kello 06.42 UTC
Ennuste voimassa 10. päivästä klo 06 UTC - 11. päivään klo 06 UTC
Tuuli 6 kn lännestä
Näkyvyys 10 km tai enemmän
Hajanaisia pilviä 2500 ft:n korkeudessa
Todennäköisyys 30%
10. päivästä klo 20 UTC - 11. päivään klo 02 UTC
Näkyvyys: 8000 m
Todennäköisyys 30%
11. päivästä klo 02 UTC - 11. päivään klo 06 UTC
Näkyvyys: 4000 m
utua

TAF: EGBB 100642Z 1006/1106 28006KT 9999 SCT025 PROB30 1020/1102 8000 PROB30 1102/1106 4000 BR

Säähavainnot ja -ennusteet yli 4000 lentoasemalta (METAR- ja TAF-raportit).

Käytössä olevat sääasemat on merkitty karttaan keltaisilla ja punaisilla pisteillä.

Aseta hiiri pisteen päälle nähdäksesi sääaseman nimen.

Klikkaa sitten nähdäksesi säähavainnot ja -ennusteet.

Kartan vaihtaminen: klikkaa mustalla rastilla varustettuja vihreitä pisteitä, niin voit zoomata sisään; viivalla varustettua vihreää pistettä, niin voit zoomata ulos tai vihreitä nuolia, niin pääset viereisille kartoille.


METAR-TAF: